sensor_id;sensor_type;location;lat;lon;timestamp;temperature;humidity
19692;DHT22;42748;50.016;19.890;2023-03-18T00:02:00;2.80;99.90
19692;DHT22;42748;50.016;19.890;2023-03-18T00:04:29;2.70;99.90
19692;DHT22;42748;50.016;19.890;2023-03-18T00:06:56;2.70;99.90
19692;DHT22;42748;50.016;19.890;2023-03-18T00:09:24;2.70;99.90
19692;DHT22;42748;50.016;19.890;2023-03-18T00:11:52;2.60;99.90
19692;DHT22;42748;50.016;19.890;2023-03-18T00:14:19;2.70;99.90
19692;DHT22;42748;50.016;19.890;2023-03-18T00:16:47;2.70;99.90
19692;DHT22;42748;50.016;19.890;2023-03-18T00:19:15;2.60;99.90
19692;DHT22;42748;50.016;19.890;2023-03-18T00:21:43;2.60;99.90
19692;DHT22;42748;50.016;19.890;2023-03-18T00:24:10;2.60;99.90
19692;DHT22;42748;50.016;19.890;2023-03-18T00:26:38;2.50;99.90
19692;DHT22;42748;50.016;19.890;2023-03-18T00:29:05;2.50;99.90
19692;DHT22;42748;50.016;19.890;2023-03-18T00:31:34;2.50;99.90
19692;DHT22;42748;50.016;19.890;2023-03-18T00:34:01;2.50;99.90
19692;DHT22;42748;50.016;19.890;2023-03-18T00:36:28;2.50;99.90
19692;DHT22;42748;50.016;19.890;2023-03-18T00:38:57;2.50;99.90
19692;DHT22;42748;50.016;19.890;2023-03-18T00:41:30;2.40;99.90
19692;DHT22;42748;50.016;19.890;2023-03-18T00:43:59;2.40;99.90
19692;DHT22;42748;50.016;19.890;2023-03-18T00:46:29;2.40;99.90
19692;DHT22;42748;50.016;19.890;2023-03-18T00:49:01;2.30;99.90
19692;DHT22;42748;50.016;19.890;2023-03-18T00:51:30;2.30;99.90
19692;DHT22;42748;50.016;19.890;2023-03-18T00:54:00;2.30;99.90
19692;DHT22;42748;50.016;19.890;2023-03-18T00:56:30;2.20;99.90
19692;DHT22;42748;50.016;19.890;2023-03-18T00:58:58;2.20;99.90
19692;DHT22;42748;50.016;19.890;2023-03-18T01:01:26;2.20;99.90
19692;DHT22;42748;50.016;19.890;2023-03-18T01:03:54;2.10;99.90
19692;DHT22;42748;50.016;19.890;2023-03-18T01:06:26;2.10;99.90
19692;DHT22;42748;50.016;19.890;2023-03-18T01:08:55;2.10;99.90
19692;DHT22;42748;50.016;19.890;2023-03-18T01:11:23;2.10;99.90
19692;DHT22;42748;50.016;19.890;2023-03-18T01:13:51;2.10;99.90
19692;DHT22;42748;50.016;19.890;2023-03-18T01:16:19;2.00;99.90
19692;DHT22;42748;50.016;19.890;2023-03-18T01:18:47;2.00;99.90
19692;DHT22;42748;50.016;19.890;2023-03-18T01:21:14;2.00;99.90
19692;DHT22;42748;50.016;19.890;2023-03-18T01:23:48;2.00;99.90
19692;DHT22;42748;50.016;19.890;2023-03-18T01:26:16;2.00;99.90
19692;DHT22;42748;50.016;19.890;2023-03-18T01:28:44;1.90;99.90
19692;DHT22;42748;50.016;19.890;2023-03-18T01:35:56;1.80;99.90
19692;DHT22;42748;50.016;19.890;2023-03-18T01:38:28;1.70;99.90
19692;DHT22;42748;50.016;19.890;2023-03-18T01:41:04;1.70;99.90
19692;DHT22;42748;50.016;19.890;2023-03-18T01:43:34;1.70;99.90
19692;DHT22;42748;50.016;19.890;2023-03-18T01:46:29;1.70;99.90
19692;DHT22;42748;50.016;19.890;2023-03-18T01:48:58;1.60;99.90
19692;DHT22;42748;50.016;19.890;2023-03-18T01:51:26;1.60;99.90
19692;DHT22;42748;50.016;19.890;2023-03-18T01:53:58;1.70;99.90
19692;DHT22;42748;50.016;19.890;2023-03-18T01:56:26;1.70;99.90
19692;DHT22;42748;50.016;19.890;2023-03-18T01:58:55;1.70;99.90
19692;DHT22;42748;50.016;19.890;2023-03-18T02:01:47;1.70;99.90
19692;DHT22;42748;50.016;19.890;2023-03-18T02:04:16;1.70;99.90
19692;DHT22;42748;50.016;19.890;2023-03-18T02:06:44;1.70;99.90
19692;DHT22;42748;50.016;19.890;2023-03-18T02:09:12;1.70;99.90
19692;DHT22;42748;50.016;19.890;2023-03-18T02:11:45;1.70;99.90
19692;DHT22;42748;50.016;19.890;2023-03-18T02:18:42;1.70;99.90
19692;DHT22;42748;50.016;19.890;2023-03-18T02:23:58;1.60;99.90
19692;DHT22;42748;50.016;19.890;2023-03-18T02:33:22;1.50;99.90
19692;DHT22;42748;50.016;19.890;2023-03-18T02:35:54;1.50;99.90
19692;DHT22;42748;50.016;19.890;2023-03-18T02:38:22;1.50;99.90
19692;DHT22;42748;50.016;19.890;2023-03-18T02:40:50;1.50;99.90
19692;DHT22;42748;50.016;19.890;2023-03-18T02:48:49;1.40;99.90
19692;DHT22;42748;50.016;19.890;2023-03-18T02:51:17;1.40;99.90
19692;DHT22;42748;50.016;19.890;2023-03-18T02:53:46;1.40;99.90
19692;DHT22;42748;50.016;19.890;2023-03-18T02:56:14;1.40;99.90
19692;DHT22;42748;50.016;19.890;2023-03-18T02:58:42;1.40;99.90
19692;DHT22;42748;50.016;19.890;2023-03-18T03:01:11;1.40;99.90
19692;DHT22;42748;50.016;19.890;2023-03-18T03:03:39;1.40;99.90
19692;DHT22;42748;50.016;19.890;2023-03-18T03:06:08;1.40;99.90
19692;DHT22;42748;50.016;19.890;2023-03-18T03:08:37;1.30;99.90
19692;DHT22;42748;50.016;19.890;2023-03-18T03:11:06;1.30;99.90
19692;DHT22;42748;50.016;19.890;2023-03-18T03:13:38;1.30;99.90
19692;DHT22;42748;50.016;19.890;2023-03-18T03:16:08;1.30;99.90
19692;DHT22;42748;50.016;19.890;2023-03-18T03:18:36;1.30;99.90
19692;DHT22;42748;50.016;19.890;2023-03-18T03:21:04;1.20;99.90
19692;DHT22;42748;50.016;19.890;2023-03-18T03:23:31;1.20;99.90
19692;DHT22;42748;50.016;19.890;2023-03-18T03:25:58;1.20;99.90
19692;DHT22;42748;50.016;19.890;2023-03-18T03:28:26;1.20;99.90
19692;DHT22;42748;50.016;19.890;2023-03-18T03:30:54;1.20;99.90
19692;DHT22;42748;50.016;19.890;2023-03-18T03:33:22;1.20;99.90
19692;DHT22;42748;50.016;19.890;2023-03-18T03:35:49;1.20;99.90
19692;DHT22;42748;50.016;19.890;2023-03-18T03:38:16;1.20;99.90
19692;DHT22;42748;50.016;19.890;2023-03-18T03:40:45;1.20;99.90
19692;DHT22;42748;50.016;19.890;2023-03-18T03:43:14;1.20;99.90
19692;DHT22;42748;50.016;19.890;2023-03-18T03:45:42;1.20;99.90
19692;DHT22;42748;50.016;19.890;2023-03-18T03:48:11;1.20;99.90
19692;DHT22;42748;50.016;19.890;2023-03-18T03:50:39;1.10;99.90
19692;DHT22;42748;50.016;19.890;2023-03-18T03:53:06;1.10;99.90
19692;DHT22;42748;50.016;19.890;2023-03-18T03:55:34;1.10;99.90
19692;DHT22;42748;50.016;19.890;2023-03-18T03:58:01;1.10;99.90
19692;DHT22;42748;50.016;19.890;2023-03-18T04:00:29;1.10;99.90
19692;DHT22;42748;50.016;19.890;2023-03-18T04:02:57;1.10;99.90
19692;DHT22;42748;50.016;19.890;2023-03-18T04:05:26;1.10;99.90
19692;DHT22;42748;50.016;19.890;2023-03-18T04:07:56;1.00;99.90
19692;DHT22;42748;50.016;19.890;2023-03-18T04:10:37;1.00;99.90
19692;DHT22;42748;50.016;19.890;2023-03-18T04:13:08;1.00;99.90
19692;DHT22;42748;50.016;19.890;2023-03-18T04:15:38;1.00;99.90
19692;DHT22;42748;50.016;19.890;2023-03-18T04:18:09;1.00;99.90
19692;DHT22;42748;50.016;19.890;2023-03-18T04:20:37;1.00;99.90
19692;DHT22;42748;50.016;19.890;2023-03-18T04:23:14;0.90;99.90
19692;DHT22;42748;50.016;19.890;2023-03-18T04:25:41;0.90;99.90
19692;DHT22;42748;50.016;19.890;2023-03-18T04:28:08;0.80;99.90
19692;DHT22;42748;50.016;19.890;2023-03-18T04:30:36;0.80;99.90
19692;DHT22;42748;50.016;19.890;2023-03-18T04:33:07;0.80;99.90
19692;DHT22;42748;50.016;19.890;2023-03-18T04:35:39;0.80;99.90
19692;DHT22;42748;50.016;19.890;2023-03-18T04:38:10;0.80;99.90
19692;DHT22;42748;50.016;19.890;2023-03-18T04:40:38;0.80;99.90
19692;DHT22;42748;50.016;19.890;2023-03-18T04:43:05;0.80;99.90
19692;DHT22;42748;50.016;19.890;2023-03-18T04:45:33;0.80;99.90
19692;DHT22;42748;50.016;19.890;2023-03-18T04:48:01;0.80;99.90
19692;DHT22;42748;50.016;19.890;2023-03-18T04:50:34;0.80;99.90
19692;DHT22;42748;50.016;19.890;2023-03-18T04:53:03;0.90;99.90
19692;DHT22;42748;50.016;19.890;2023-03-18T04:55:31;0.90;99.90
19692;DHT22;42748;50.016;19.890;2023-03-18T04:58:02;0.80;99.90
19692;DHT22;42748;50.016;19.890;2023-03-18T05:00:34;0.80;99.90
19692;DHT22;42748;50.016;19.890;2023-03-18T05:03:14;0.90;99.90
19692;DHT22;42748;50.016;19.890;2023-03-18T05:05:42;0.90;99.90
19692;DHT22;42748;50.016;19.890;2023-03-18T05:08:15;0.90;99.90
19692;DHT22;42748;50.016;19.890;2023-03-18T05:10:43;1.00;99.90
19692;DHT22;42748;50.016;19.890;2023-03-18T05:13:12;1.00;99.90
19692;DHT22;42748;50.016;19.890;2023-03-18T05:15:39;1.00;99.90
19692;DHT22;42748;50.016;19.890;2023-03-18T05:18:07;1.00;99.90
19692;DHT22;42748;50.016;19.890;2023-03-18T05:20:34;1.10;99.90
19692;DHT22;42748;50.016;19.890;2023-03-18T05:23:02;1.10;99.90
19692;DHT22;42748;50.016;19.890;2023-03-18T05:25:42;1.20;99.90
19692;DHT22;42748;50.016;19.890;2023-03-18T05:28:09;1.30;99.90
19692;DHT22;42748;50.016;19.890;2023-03-18T05:31:03;1.30;99.90
19692;DHT22;42748;50.016;19.890;2023-03-18T05:33:35;1.30;99.90
19692;DHT22;42748;50.016;19.890;2023-03-18T05:36:04;1.40;99.90
19692;DHT22;42748;50.016;19.890;2023-03-18T05:38:36;1.40;99.90
19692;DHT22;42748;50.016;19.890;2023-03-18T05:41:03;1.50;99.90
19692;DHT22;42748;50.016;19.890;2023-03-18T05:43:38;1.40;99.90
19692;DHT22;42748;50.016;19.890;2023-03-18T05:46:05;1.50;99.90
19692;DHT22;42748;50.016;19.890;2023-03-18T05:48:55;1.50;99.90
19692;DHT22;42748;50.016;19.890;2023-03-18T05:51:27;1.70;99.90
19692;DHT22;42748;50.016;19.890;2023-03-18T05:53:55;1.70;99.90
19692;DHT22;42748;50.016;19.890;2023-03-18T05:56:27;1.80;99.90
19692;DHT22;42748;50.016;19.890;2023-03-18T05:58:57;1.80;99.90
19692;DHT22;42748;50.016;19.890;2023-03-18T06:01:40;1.80;99.90
19692;DHT22;42748;50.016;19.890;2023-03-18T06:04:08;1.90;99.90
19692;DHT22;42748;50.016;19.890;2023-03-18T06:06:36;2.10;99.90
19692;DHT22;42748;50.016;19.890;2023-03-18T06:09:08;2.30;99.90
19692;DHT22;42748;50.016;19.890;2023-03-18T06:11:37;2.80;99.90
19692;DHT22;42748;50.016;19.890;2023-03-18T06:14:07;3.40;99.90
19692;DHT22;42748;50.016;19.890;2023-03-18T06:16:35;4.10;99.90
19692;DHT22;42748;50.016;19.890;2023-03-18T06:19:02;4.90;99.90
19692;DHT22;42748;50.016;19.890;2023-03-18T06:21:30;5.40;99.90
19692;DHT22;42748;50.016;19.890;2023-03-18T06:23:59;5.70;99.90
19692;DHT22;42748;50.016;19.890;2023-03-18T06:26:28;6.00;99.90
19692;DHT22;42748;50.016;19.890;2023-03-18T06:28:55;6.00;99.90
19692;DHT22;42748;50.016;19.890;2023-03-18T06:31:25;6.30;99.90
19692;DHT22;42748;50.016;19.890;2023-03-18T06:33:53;6.70;99.90
19692;DHT22;42748;50.016;19.890;2023-03-18T06:36:22;7.20;99.90
19692;DHT22;42748;50.016;19.890;2023-03-18T06:38:51;7.70;99.90
19692;DHT22;42748;50.016;19.890;2023-03-18T06:41:20;7.70;99.90
19692;DHT22;42748;50.016;19.890;2023-03-18T06:44:01;7.90;99.90
19692;DHT22;42748;50.016;19.890;2023-03-18T06:46:30;8.30;99.80
19692;DHT22;42748;50.016;19.890;2023-03-18T06:48:59;8.30;99.90
19692;DHT22;42748;50.016;19.890;2023-03-18T06:51:31;8.60;95.40
19692;DHT22;42748;50.016;19.890;2023-03-18T06:54:01;8.90;91.70
19692;DHT22;42748;50.016;19.890;2023-03-18T06:56:30;8.80;92.20
19692;DHT22;42748;50.016;19.890;2023-03-18T06:59:11;8.80;91.30
19692;DHT22;42748;50.016;19.890;2023-03-18T07:01:40;8.30;94.30
19692;DHT22;42748;50.016;19.890;2023-03-18T07:04:07;8.10;99.20
19692;DHT22;42748;50.016;19.890;2023-03-18T07:06:35;8.30;96.20
19692;DHT22;42748;50.016;19.890;2023-03-18T07:09:03;8.30;98.30
19692;DHT22;42748;50.016;19.890;2023-03-18T07:11:30;8.70;94.10
19692;DHT22;42748;50.016;19.890;2023-03-18T07:14:02;9.10;91.60
19692;DHT22;42748;50.016;19.890;2023-03-18T07:16:32;9.10;91.00
19692;DHT22;42748;50.016;19.890;2023-03-18T07:23:28;9.60;86.20
19692;DHT22;42748;50.016;19.890;2023-03-18T07:25:56;9.90;77.80
19692;DHT22;42748;50.016;19.890;2023-03-18T07:28:23;9.80;78.80
19692;DHT22;42748;50.016;19.890;2023-03-18T07:30:52;10.00;79.50
19692;DHT22;42748;50.016;19.890;2023-03-18T07:37:47;10.20;74.70
19692;DHT22;42748;50.016;19.890;2023-03-18T07:40:15;10.50;72.20
19692;DHT22;42748;50.016;19.890;2023-03-18T07:42:42;10.40;72.10
19692;DHT22;42748;50.016;19.890;2023-03-18T07:45:10;10.60;73.10
19692;DHT22;42748;50.016;19.890;2023-03-18T07:52:08;10.50;74.20
19692;DHT22;42748;50.016;19.890;2023-03-18T07:54:36;10.60;71.90
19692;DHT22;42748;50.016;19.890;2023-03-18T07:57:03;10.60;70.30
19692;DHT22;42748;50.016;19.890;2023-03-18T07:59:30;10.70;70.30
19692;DHT22;42748;50.016;19.890;2023-03-18T08:06:26;10.90;67.20
19692;DHT22;42748;50.016;19.890;2023-03-18T08:08:54;11.30;64.80
19692;DHT22;42748;50.016;19.890;2023-03-18T08:11:21;11.40;63.70
19692;DHT22;42748;50.016;19.890;2023-03-18T08:13:48;11.40;63.80
19692;DHT22;42748;50.016;19.890;2023-03-18T08:16:15;11.40;62.00
19692;DHT22;42748;50.016;19.890;2023-03-18T08:18:44;11.50;63.20
19692;DHT22;42748;50.016;19.890;2023-03-18T08:21:11;11.50;62.50
19692;DHT22;42748;50.016;19.890;2023-03-18T08:23:38;11.70;63.10
19692;DHT22;42748;50.016;19.890;2023-03-18T08:26:05;11.90;64.00
19692;DHT22;42748;50.016;19.890;2023-03-18T08:28:33;12.20;60.50
19692;DHT22;42748;50.016;19.890;2023-03-18T08:31:00;12.40;61.40
19692;DHT22;42748;50.016;19.890;2023-03-18T08:33:27;12.70;61.80
19692;DHT22;42748;50.016;19.890;2023-03-18T08:35:55;13.10;59.40
19692;DHT22;42748;50.016;19.890;2023-03-18T08:38:23;13.40;56.50
19692;DHT22;42748;50.016;19.890;2023-03-18T08:40:51;13.50;55.90
19692;DHT22;42748;50.016;19.890;2023-03-18T08:43:18;13.70;55.90
19692;DHT22;42748;50.016;19.890;2023-03-18T08:45:52;13.90;55.10
19692;DHT22;42748;50.016;19.890;2023-03-18T08:48:21;14.10;53.60
19692;DHT22;42748;50.016;19.890;2023-03-18T08:50:48;14.00;52.60
19692;DHT22;42748;50.016;19.890;2023-03-18T08:53:16;14.30;52.60
19692;DHT22;42748;50.016;19.890;2023-03-18T08:55:43;14.40;52.10
19692;DHT22;42748;50.016;19.890;2023-03-18T08:58:10;14.30;52.30
19692;DHT22;42748;50.016;19.890;2023-03-18T09:00:39;14.40;52.70
19692;DHT22;42748;50.016;19.890;2023-03-18T09:03:06;14.40;52.30
19692;DHT22;42748;50.016;19.890;2023-03-18T09:05:34;14.20;51.20
19692;DHT22;42748;50.016;19.890;2023-03-18T09:08:03;14.20;52.50
19692;DHT22;42748;50.016;19.890;2023-03-18T09:10:31;14.30;53.80
19692;DHT22;42748;50.016;19.890;2023-03-18T09:12:59;13.90;53.20
19692;DHT22;42748;50.016;19.890;2023-03-18T09:15:26;14.00;52.60
19692;DHT22;42748;50.016;19.890;2023-03-18T09:17:54;14.20;51.90
19692;DHT22;42748;50.016;19.890;2023-03-18T09:20:37;14.40;50.50
19692;DHT22;42748;50.016;19.890;2023-03-18T09:23:05;14.90;50.70
19692;DHT22;42748;50.016;19.890;2023-03-18T09:25:33;15.20;49.70
19692;DHT22;42748;50.016;19.890;2023-03-18T09:28:01;15.30;48.80
19692;DHT22;42748;50.016;19.890;2023-03-18T09:30:28;15.50;48.80
19692;DHT22;42748;50.016;19.890;2023-03-18T09:32:56;15.70;46.80
19692;DHT22;42748;50.016;19.890;2023-03-18T09:35:24;16.10;47.60
19692;DHT22;42748;50.016;19.890;2023-03-18T09:37:51;15.90;47.40
19692;DHT22;42748;50.016;19.890;2023-03-18T09:48:59;16.10;48.90
19692;DHT22;42748;50.016;19.890;2023-03-18T09:54:31;15.80;46.60
19692;DHT22;42748;50.016;19.890;2023-03-18T09:57:02;15.90;47.10
19692;DHT22;42748;50.016;19.890;2023-03-18T09:59:40;15.80;47.00
19692;DHT22;42748;50.016;19.890;2023-03-18T10:02:21;16.00;44.60
19692;DHT22;42748;50.016;19.890;2023-03-18T10:05:01;15.80;44.90
19692;DHT22;42748;50.016;19.890;2023-03-18T10:07:37;15.60;46.30
19692;DHT22;42748;50.016;19.890;2023-03-18T10:10:17;15.60;46.40
19692;DHT22;42748;50.016;19.890;2023-03-18T10:12:51;15.20;45.00
19692;DHT22;42748;50.016;19.890;2023-03-18T10:15:35;15.40;46.30
19692;DHT22;42748;50.016;19.890;2023-03-18T10:40:16;15.90;44.00
19692;DHT22;42748;50.016;19.890;2023-03-18T10:42:44;15.60;44.40
19692;DHT22;42748;50.016;19.890;2023-03-18T10:45:30;15.80;46.00
19692;DHT22;42748;50.016;19.890;2023-03-18T10:48:05;16.10;45.10
19692;DHT22;42748;50.016;19.890;2023-03-18T10:52:37;16.00;44.60
19692;DHT22;42748;50.016;19.890;2023-03-18T10:55:16;16.20;43.30
19692;DHT22;42748;50.016;19.890;2023-03-18T10:57:44;16.10;43.50
19692;DHT22;42748;50.016;19.890;2023-03-18T11:03:05;17.00;43.30
19692;DHT22;42748;50.016;19.890;2023-03-18T11:05:36;16.80;43.20
19692;DHT22;42748;50.016;19.890;2023-03-18T11:08:06;16.90;43.80
19692;DHT22;42748;50.016;19.890;2023-03-18T11:10:43;17.00;43.60
19692;DHT22;42748;50.016;19.890;2023-03-18T11:13:18;17.00;42.50
19692;DHT22;42748;50.016;19.890;2023-03-18T11:15:51;16.80;42.50
19692;DHT22;42748;50.016;19.890;2023-03-18T11:22:48;16.70;42.70
19692;DHT22;42748;50.016;19.890;2023-03-18T11:25:22;16.30;44.10
19692;DHT22;42748;50.016;19.890;2023-03-18T11:28:19;16.40;44.30
19692;DHT22;42748;50.016;19.890;2023-03-18T11:30:51;16.20;43.40
19692;DHT22;42748;50.016;19.890;2023-03-18T11:42:41;16.20;42.60
19692;DHT22;42748;50.016;19.890;2023-03-18T11:45:30;16.50;42.40
19692;DHT22;42748;50.016;19.890;2023-03-18T11:48:00;16.50;42.90
19692;DHT22;42748;50.016;19.890;2023-03-18T12:26:10;15.70;45.30
19692;DHT22;42748;50.016;19.890;2023-03-18T12:31:32;15.50;44.50
19692;DHT22;42748;50.016;19.890;2023-03-18T12:44:27;15.30;45.30
19692;DHT22;42748;50.016;19.890;2023-03-18T12:47:07;15.30;45.00
19692;DHT22;42748;50.016;19.890;2023-03-18T12:54:07;15.20;45.40
19692;DHT22;42748;50.016;19.890;2023-03-18T12:56:42;15.10;45.80
19692;DHT22;42748;50.016;19.890;2023-03-18T12:59:16;15.20;46.00
19692;DHT22;42748;50.016;19.890;2023-03-18T13:13:57;14.90;46.60
19692;DHT22;42748;50.016;19.890;2023-03-18T13:16:26;15.10;46.60
19692;DHT22;42748;50.016;19.890;2023-03-18T13:18:55;14.80;47.00
19692;DHT22;42748;50.016;19.890;2023-03-18T13:21:28;14.60;47.70
19692;DHT22;42748;50.016;19.890;2023-03-18T13:32:45;14.70;48.00
19692;DHT22;42748;50.016;19.890;2023-03-18T13:39:52;14.80;47.90
19692;DHT22;42748;50.016;19.890;2023-03-18T13:42:34;14.80;47.30
19692;DHT22;42748;50.016;19.890;2023-03-18T13:47:37;14.80;46.90
19692;DHT22;42748;50.016;19.890;2023-03-18T13:54:37;14.80;46.70
19692;DHT22;42748;50.016;19.890;2023-03-18T14:00:12;14.70;46.40
19692;DHT22;42748;50.016;19.890;2023-03-18T14:03:20;14.80;46.60
19692;DHT22;42748;50.016;19.890;2023-03-18T14:17:53;15.20;45.40
19692;DHT22;42748;50.016;19.890;2023-03-18T14:24:41;15.30;45.00
19692;DHT22;42748;50.016;19.890;2023-03-18T14:27:17;15.20;45.10
19692;DHT22;42748;50.016;19.890;2023-03-18T14:29:46;15.20;45.20
19692;DHT22;42748;50.016;19.890;2023-03-18T14:39:16;15.20;44.50
19692;DHT22;42748;50.016;19.890;2023-03-18T14:41:48;15.10;44.40
19692;DHT22;42748;50.016;19.890;2023-03-18T14:44:18;15.00;44.60
19692;DHT22;42748;50.016;19.890;2023-03-18T14:46:50;15.00;44.80
19692;DHT22;42748;50.016;19.890;2023-03-18T14:49:32;14.90;44.60
19692;DHT22;42748;50.016;19.890;2023-03-18T14:52:05;15.00;45.00
19692;DHT22;42748;50.016;19.890;2023-03-18T14:54:40;15.00;45.10
19692;DHT22;42748;50.016;19.890;2023-03-18T14:57:09;14.90;45.20
19692;DHT22;42748;50.016;19.890;2023-03-18T14:59:36;15.00;45.30
19692;DHT22;42748;50.016;19.890;2023-03-18T15:02:10;15.10;45.30
19692;DHT22;42748;50.016;19.890;2023-03-18T15:04:49;15.10;45.70
19692;DHT22;42748;50.016;19.890;2023-03-18T15:07:18;15.00;46.00
19692;DHT22;42748;50.016;19.890;2023-03-18T15:09:46;14.90;46.50
19692;DHT22;42748;50.016;19.890;2023-03-18T15:12:26;14.90;46.80
19692;DHT22;42748;50.016;19.890;2023-03-18T15:14:53;14.80;46.90
19692;DHT22;42748;50.016;19.890;2023-03-18T15:17:24;14.80;47.30
19692;DHT22;42748;50.016;19.890;2023-03-18T15:19:57;14.80;47.00
19692;DHT22;42748;50.016;19.890;2023-03-18T15:22:28;14.80;47.30
19692;DHT22;42748;50.016;19.890;2023-03-18T15:25:02;14.70;47.30
19692;DHT22;42748;50.016;19.890;2023-03-18T15:27:31;14.60;47.50
19692;DHT22;42748;50.016;19.890;2023-03-18T15:30:02;14.60;47.70
19692;DHT22;42748;50.016;19.890;2023-03-18T15:32:42;14.60;47.70
19692;DHT22;42748;50.016;19.890;2023-03-18T15:39:38;14.30;48.20
19692;DHT22;42748;50.016;19.890;2023-03-18T15:42:18;14.40;48.20
19692;DHT22;42748;50.016;19.890;2023-03-18T15:44:56;14.40;48.50
19692;DHT22;42748;50.016;19.890;2023-03-18T15:47:29;14.30;48.40
19692;DHT22;42748;50.016;19.890;2023-03-18T15:56:58;14.20;48.50
19692;DHT22;42748;50.016;19.890;2023-03-18T15:59:29;14.20;48.60
19692;DHT22;42748;50.016;19.890;2023-03-18T16:01:58;14.20;48.90
19692;DHT22;42748;50.016;19.890;2023-03-18T16:04:31;14.10;48.90
19692;DHT22;42748;50.016;19.890;2023-03-18T16:11:25;14.10;49.30
19692;DHT22;42748;50.016;19.890;2023-03-18T16:13:53;13.90;50.30
19692;DHT22;42748;50.016;19.890;2023-03-18T16:16:26;13.90;50.40
19692;DHT22;42748;50.016;19.890;2023-03-18T16:18:54;13.80;50.40
19692;DHT22;42748;50.016;19.890;2023-03-18T16:21:23;13.70;50.70
19692;DHT22;42748;50.016;19.890;2023-03-18T16:23:51;13.60;51.00
19692;DHT22;42748;50.016;19.890;2023-03-18T16:26:18;13.60;51.50
19692;DHT22;42748;50.016;19.890;2023-03-18T16:28:45;13.50;51.40
19692;DHT22;42748;50.016;19.890;2023-03-18T16:31:14;13.40;52.10
19692;DHT22;42748;50.016;19.890;2023-03-18T16:33:41;13.30;51.50
19692;DHT22;42748;50.016;19.890;2023-03-18T16:36:20;13.30;51.80
19692;DHT22;42748;50.016;19.890;2023-03-18T16:38:51;13.20;52.00
19692;DHT22;42748;50.016;19.890;2023-03-18T16:41:18;13.20;52.10
19692;DHT22;42748;50.016;19.890;2023-03-18T16:43:45;13.10;52.10
19692;DHT22;42748;50.016;19.890;2023-03-18T16:46:15;13.00;52.20
19692;DHT22;42748;50.016;19.890;2023-03-18T16:48:43;13.00;52.50
19692;DHT22;42748;50.016;19.890;2023-03-18T16:51:10;12.90;52.60
19692;DHT22;42748;50.016;19.890;2023-03-18T16:53:38;12.80;52.80
19692;DHT22;42748;50.016;19.890;2023-03-18T16:56:17;12.80;52.90
19692;DHT22;42748;50.016;19.890;2023-03-18T16:58:44;12.80;53.20
19692;DHT22;42748;50.016;19.890;2023-03-18T17:01:14;12.70;53.40
19692;DHT22;42748;50.016;19.890;2023-03-18T17:03:42;12.60;53.50
19692;DHT22;42748;50.016;19.890;2023-03-18T17:06:11;12.50;53.70
19692;DHT22;42748;50.016;19.890;2023-03-18T17:08:39;12.50;53.80
19692;DHT22;42748;50.016;19.890;2023-03-18T17:11:08;12.40;54.10
19692;DHT22;42748;50.016;19.890;2023-03-18T17:13:36;12.30;54.40
19692;DHT22;42748;50.016;19.890;2023-03-18T17:16:04;12.20;54.70
19692;DHT22;42748;50.016;19.890;2023-03-18T17:18:31;12.10;54.80
19692;DHT22;42748;50.016;19.890;2023-03-18T17:20:59;12.10;55.10
19692;DHT22;42748;50.016;19.890;2023-03-18T17:23:27;12.00;55.40
19692;DHT22;42748;50.016;19.890;2023-03-18T17:25:58;12.00;55.60
19692;DHT22;42748;50.016;19.890;2023-03-18T17:28:40;11.90;55.80
19692;DHT22;42748;50.016;19.890;2023-03-18T17:31:11;11.80;56.20
19692;DHT22;42748;50.016;19.890;2023-03-18T17:33:39;11.80;56.50
19692;DHT22;42748;50.016;19.890;2023-03-18T17:36:07;11.70;56.70
19692;DHT22;42748;50.016;19.890;2023-03-18T17:38:34;11.60;57.00
19692;DHT22;42748;50.016;19.890;2023-03-18T17:41:04;11.50;57.40
19692;DHT22;42748;50.016;19.890;2023-03-18T17:43:36;11.50;57.70
19692;DHT22;42748;50.016;19.890;2023-03-18T17:46:04;11.40;58.10
19692;DHT22;42748;50.016;19.890;2023-03-18T17:48:34;11.30;58.30
19692;DHT22;42748;50.016;19.890;2023-03-18T17:51:05;11.20;58.80
19692;DHT22;42748;50.016;19.890;2023-03-18T17:53:50;11.10;59.30
19692;DHT22;42748;50.016;19.890;2023-03-18T17:56:19;11.10;59.90
19692;DHT22;42748;50.016;19.890;2023-03-18T17:58:48;11.00;60.40
19692;DHT22;42748;50.016;19.890;2023-03-18T18:01:20;11.00;61.00
19692;DHT22;42748;50.016;19.890;2023-03-18T18:03:50;10.90;62.50
19692;DHT22;42748;50.016;19.890;2023-03-18T18:06:20;10.90;62.80
19692;DHT22;42748;50.016;19.890;2023-03-18T18:08:48;10.80;63.20
19692;DHT22;42748;50.016;19.890;2023-03-18T18:11:21;10.80;63.80
19692;DHT22;42748;50.016;19.890;2023-03-18T18:13:52;10.80;64.50
19692;DHT22;42748;50.016;19.890;2023-03-18T18:16:20;10.70;65.10
19692;DHT22;42748;50.016;19.890;2023-03-18T18:18:49;10.70;66.30
19692;DHT22;42748;50.016;19.890;2023-03-18T18:21:18;10.60;67.20
19692;DHT22;42748;50.016;19.890;2023-03-18T18:23:47;10.60;68.20
19692;DHT22;42748;50.016;19.890;2023-03-18T18:26:16;10.60;68.90
19692;DHT22;42748;50.016;19.890;2023-03-18T18:28:49;10.50;69.50
19692;DHT22;42748;50.016;19.890;2023-03-18T18:31:18;10.50;70.60
19692;DHT22;42748;50.016;19.890;2023-03-18T18:33:47;10.50;71.30
19692;DHT22;42748;50.016;19.890;2023-03-18T18:36:16;10.50;71.30
19692;DHT22;42748;50.016;19.890;2023-03-18T18:43:12;10.50;73.30
19692;DHT22;42748;50.016;19.890;2023-03-18T18:45:39;10.40;72.70
19692;DHT22;42748;50.016;19.890;2023-03-18T18:48:18;10.50;72.60
19692;DHT22;42748;50.016;19.890;2023-03-18T18:50:45;10.50;72.70
19692;DHT22;42748;50.016;19.890;2023-03-18T18:57:40;10.40;73.90
19692;DHT22;42748;50.016;19.890;2023-03-18T19:02:43;10.40;74.40
19692;DHT22;42748;50.016;19.890;2023-03-18T19:05:12;10.40;75.50
19692;DHT22;42748;50.016;19.890;2023-03-18T19:12:13;10.30;77.20
19692;DHT22;42748;50.016;19.890;2023-03-18T19:14:42;10.20;78.50
19692;DHT22;42748;50.016;19.890;2023-03-18T19:17:20;10.20;79.80
19692;DHT22;42748;50.016;19.890;2023-03-18T19:19:50;10.10;80.90
19692;DHT22;42748;50.016;19.890;2023-03-18T19:22:19;10.10;81.40
19692;DHT22;42748;50.016;19.890;2023-03-18T19:24:47;10.00;81.70
19692;DHT22;42748;50.016;19.890;2023-03-18T19:27:22;10.00;82.20
19692;DHT22;42748;50.016;19.890;2023-03-18T19:29:52;9.90;83.30
19692;DHT22;42748;50.016;19.890;2023-03-18T19:32:21;9.90;83.70
19692;DHT22;42748;50.016;19.890;2023-03-18T19:34:49;9.90;84.90
19692;DHT22;42748;50.016;19.890;2023-03-18T19:37:27;9.80;84.40
19692;DHT22;42748;50.016;19.890;2023-03-18T19:39:58;9.80;85.60
19692;DHT22;42748;50.016;19.890;2023-03-18T19:42:25;9.80;86.00